Time;durP1;ratioP1;P1;durP2;ratioP2;P2;SDS_P1;SDS_P2;PMS_P1;PMS_P2;Temp;Humidity;BMP_temperature;BMP_pressure;BME280_temperature;BME280_humidity;BME280_pressure;Samples;Min_cycle;Max_cycle;Signal;HPM_P1;HPM_P2
2022/06/01 00:00:09;;;;;;;;;;;16.00;99.90;;;;;;4593824;19;19915;-26
2022/06/01 00:02:00;;;;;;;;;;;16.10;99.90;;;;;;4594101;19;19926;-25
2022/06/01 00:03:31;;;;;;;;;;;16.00;99.90;;;;;;4596395;19;19948;-24
2022/06/01 00:05:03;;;;;;;;;;;16.00;99.90;;;;;;4592220;19;19927;-24
2022/06/01 00:06:34;;;;;;;;;;;16.00;99.90;;;;;;4595547;19;19914;-24
2022/06/01 00:08:06;;;;;;;;;;;15.90;99.90;;;;;;4592921;19;19914;-24
2022/06/01 00:09:36;;;;;;;;;;;15.90;99.90;;;;;;4596005;19;20318;-28
2022/06/01 00:11:08;;;;;;;;;;;15.90;99.90;;;;;;4594695;19;19993;-25
2022/06/01 00:12:39;;;;;;;;;;;15.90;99.90;;;;;;4596407;19;19918;-26
2022/06/01 00:14:10;;;;;;;;;;;15.90;99.90;;;;;;4594972;19;20377;-24
2022/06/01 00:15:41;;;;;;;;;;;15.90;99.90;;;;;;4595408;19;19910;-24
2022/06/01 00:17:12;;;;;;;;;;;15.90;99.90;;;;;;4594310;19;20321;-24
2022/06/01 00:18:42;;;;;;;;;;;15.90;99.90;;;;;;4596104;19;19914;-24
2022/06/01 00:20:14;;;;;;;;;;;15.90;99.90;;;;;;4594498;19;19983;-25
2022/06/01 00:23:34;;;;;;;;;;;16.00;99.90;;;;;;4594755;19;19926;-28
2022/06/01 00:25:07;;;;;;;;;;;16.00;99.90;;;;;;4591678;19;19911;-25
2022/06/01 00:26:38;;;;;;;;;;;15.90;99.90;;;;;;4595306;19;20230;-24
2022/06/01 00:28:09;;;;;;;;;;;16.00;99.90;;;;;;4594243;19;19949;-24
2022/06/01 00:29:40;;;;;;;;;;;15.90;99.90;;;;;;4595438;19;19990;-26
2022/06/01 00:31:13;;;;;;;;;;;16.00;99.90;;;;;;4595298;19;20510;-27
2022/06/01 00:32:44;;;;;;;;;;;16.00;99.90;;;;;;4595369;19;19911;-24
2022/06/01 00:34:15;;;;;;;;;;;16.00;99.90;;;;;;4594170;19;19918;-24
2022/06/01 00:35:46;;;;;;;;;;;16.00;99.90;;;;;;4593558;19;19914;-25
2022/06/01 00:37:19;;;;;;;;;;;16.00;99.90;;;;;;4593285;19;20369;-23
2022/06/01 00:38:50;;;;;;;;;;;16.00;99.90;;;;;;4593105;19;20377;-24
2022/06/01 00:40:22;;;;;;;;;;;16.00;99.90;;;;;;4593386;19;19921;-24
2022/06/01 00:41:52;;;;;;;;;;;16.00;99.90;;;;;;4593494;19;19938;-24
2022/06/01 00:43:24;;;;;;;;;;;16.00;99.90;;;;;;4592593;19;19919;-25
2022/06/01 00:44:55;;;;;;;;;;;16.00;99.90;;;;;;4591980;19;19943;-24
2022/06/01 00:46:26;;;;;;;;;;;16.00;99.90;;;;;;4593298;19;19911;-26
2022/06/01 00:47:57;;;;;;;;;;;16.00;99.90;;;;;;4593692;19;19935;-24
2022/06/01 00:49:28;;;;;;;;;;;16.00;99.90;;;;;;4592730;19;19915;-24
2022/06/01 00:50:59;;;;;;;;;;;16.00;99.90;;;;;;4592799;19;19929;-23
2022/06/01 00:52:36;;;;;;;;;;;16.00;99.90;;;;;;4589285;19;20331;-27
2022/06/01 00:54:07;;;;;;;;;;;16.00;99.90;;;;;;4592650;19;19978;-24
2022/06/01 00:55:42;;;;;;;;;;;16.00;99.90;;;;;;4591609;19;19925;-26
2022/06/01 00:57:13;;;;;;;;;;;16.00;99.90;;;;;;4592635;19;19915;-24
2022/06/01 00:58:44;;;;;;;;;;;16.10;99.90;;;;;;4591074;19;19918;-27
2022/06/01 01:00:17;;;;;;;;;;;16.10;99.90;;;;;;4592214;19;20377;-27
2022/06/01 01:01:49;;;;;;;;;;;16.00;99.90;;;;;;4592357;19;19918;-23
2022/06/01 01:03:20;;;;;;;;;;;16.00;99.90;;;;;;4592207;19;20342;-24
2022/06/01 01:04:51;;;;;;;;;;;16.00;99.90;;;;;;4591101;19;19917;-24
2022/06/01 01:06:29;;;;;;;;;;;16.00;99.90;;;;;;4591098;19;19915;-24
2022/06/01 01:08:00;;;;;;;;;;;16.00;99.90;;;;;;4591170;19;20424;-24
2022/06/01 01:09:32;;;;;;;;;;;16.00;99.90;;;;;;4591475;19;20276;-25
2022/06/01 01:11:02;;;;;;;;;;;15.90;99.90;;;;;;4592011;19;19923;-24
2022/06/01 01:12:56;;;;;;;;;;;15.90;99.90;;;;;;4591981;19;19927;-23
2022/06/01 01:14:28;;;;;;;;;;;15.90;99.90;;;;;;4591347;19;19915;-27
2022/06/01 01:15:59;;;;;;;;;;;15.90;99.90;;;;;;4592051;19;19922;-24
2022/06/01 01:17:31;;;;;;;;;;;15.90;99.90;;;;;;4589823;19;19915;-24
2022/06/01 01:19:02;;;;;;;;;;;15.90;99.90;;;;;;4592209;19;19926;-23
2022/06/01 01:20:34;;;;;;;;;;;15.90;99.90;;;;;;4591077;19;19978;-24
2022/06/01 01:22:10;;;;;;;;;;;15.90;99.90;;;;;;4591293;19;19930;-24
2022/06/01 01:24:00;;;;;;;;;;;15.80;99.90;;;;;;4592281;19;19921;-23
2022/06/01 01:25:35;;;;;;;;;;;15.80;99.90;;;;;;4592240;19;20268;-25
2022/06/01 01:27:07;;;;;;;;;;;15.90;99.90;;;;;;4592062;19;19923;-25
2022/06/01 01:28:37;;;;;;;;;;;15.90;99.90;;;;;;4591678;19;19919;-23
2022/06/01 01:30:26;;;;;;;;;;;15.90;99.90;;;;;;4592453;19;19919;-24
2022/06/01 01:31:58;;;;;;;;;;;15.90;99.90;;;;;;4592288;19;19978;-24
2022/06/01 01:33:29;;;;;;;;;;;15.90;99.90;;;;;;4591911;19;19923;-24
2022/06/01 01:35:00;;;;;;;;;;;15.90;99.90;;;;;;4590870;19;19922;-24
2022/06/01 01:36:35;;;;;;;;;;;15.90;99.90;;;;;;4591741;19;19922;-24
2022/06/01 01:38:09;;;;;;;;;;;15.90;99.90;;;;;;4590644;19;19914;-26
2022/06/01 01:39:40;;;;;;;;;;;15.90;99.90;;;;;;4591324;19;19922;-24
2022/06/01 01:41:15;;;;;;;;;;;15.90;99.90;;;;;;4590597;19;20290;-24
2022/06/01 01:42:47;;;;;;;;;;;15.90;99.90;;;;;;4591639;19;19934;-26
2022/06/01 01:44:27;;;;;;;;;;;15.90;99.90;;;;;;4590128;19;20333;-24
2022/06/01 01:45:58;;;;;;;;;;;15.90;99.90;;;;;;4590385;19;19974;-24
2022/06/01 01:47:29;;;;;;;;;;;15.90;99.90;;;;;;4591458;19;19910;-25
2022/06/01 01:49:02;;;;;;;;;;;15.90;99.90;;;;;;4592037;19;19922;-25
2022/06/01 01:50:33;;;;;;;;;;;15.90;99.90;;;;;;4591736;19;19910;-23
2022/06/01 01:52:06;;;;;;;;;;;16.00;99.90;;;;;;4591257;19;19935;-24
2022/06/01 01:53:37;;;;;;;;;;;15.90;99.90;;;;;;4591726;19;19929;-26
2022/06/01 01:55:14;;;;;;;;;;;15.90;99.90;;;;;;4590693;19;19952;-23
2022/06/01 01:56:48;;;;;;;;;;;16.00;99.90;;;;;;4590429;19;19927;-24
2022/06/01 01:58:42;;;;;;;;;;;16.00;99.90;;;;;;4590925;19;19939;-26
2022/06/01 02:00:17;;;;;;;;;;;15.90;99.90;;;;;;4590499;19;19929;-23
2022/06/01 02:01:49;;;;;;;;;;;16.00;99.90;;;;;;4591189;19;19922;-25
2022/06/01 02:03:30;;;;;;;;;;;16.00;99.90;;;;;;4590811;19;19911;-24
2022/06/01 02:07:05;;;;;;;;;;;16.00;99.90;;;;;;4590352;19;19921;-24
2022/06/01 02:08:41;;;;;;;;;;;16.00;99.90;;;;;;4590087;19;19976;-25
2022/06/01 02:13:52;;;;;;;;;;;16.00;99.90;;;;;;4591169;19;19982;-24
2022/06/01 02:15:25;;;;;;;;;;;16.00;99.90;;;;;;4591631;19;20361;-26
2022/06/01 02:17:15;;;;;;;;;;;16.00;99.90;;;;;;4590395;19;19918;-24
2022/06/01 02:18:46;;;;;;;;;;;16.00;99.90;;;;;;4591178;19;19952;-25
2022/06/01 02:20:17;;;;;;;;;;;16.00;99.90;;;;;;4591285;19;19930;-26
2022/06/01 02:21:48;;;;;;;;;;;15.90;99.90;;;;;;4591304;19;19910;-24
2022/06/01 02:23:19;;;;;;;;;;;15.90;99.90;;;;;;4590704;19;19951;-24
2022/06/01 02:24:50;;;;;;;;;;;15.90;99.90;;;;;;4590070;19;19925;-24
2022/06/01 02:26:21;;;;;;;;;;;15.90;99.90;;;;;;4591345;19;19931;-23
2022/06/01 02:27:52;;;;;;;;;;;15.90;99.90;;;;;;4591420;19;19914;-24
2022/06/01 02:29:43;;;;;;;;;;;15.90;99.90;;;;;;4589763;19;19930;-25
2022/06/01 02:31:15;;;;;;;;;;;15.90;99.90;;;;;;4589566;19;20265;-26
2022/06/01 02:32:46;;;;;;;;;;;15.90;99.90;;;;;;4589985;19;19911;-24
2022/06/01 02:34:17;;;;;;;;;;;15.90;99.90;;;;;;4589851;19;19996;-23
2022/06/01 02:35:49;;;;;;;;;;;15.90;99.90;;;;;;4589413;19;19915;-24
2022/06/01 02:37:20;;;;;;;;;;;16.00;99.90;;;;;;4589364;19;19919;-24
2022/06/01 02:38:51;;;;;;;;;;;15.90;99.90;;;;;;4589630;19;19974;-24
2022/06/01 02:40:22;;;;;;;;;;;15.90;99.90;;;;;;4589623;19;20254;-24
2022/06/01 02:42:28;;;;;;;;;;;16.00;99.90;;;;;;4590222;19;19921;-25
2022/06/01 02:44:01;;;;;;;;;;;16.00;99.90;;;;;;4590262;19;20250;-24
2022/06/01 02:45:32;;;;;;;;;;;15.90;99.90;;;;;;4590887;19;20337;-23
2022/06/01 02:47:03;;;;;;;;;;;15.90;99.90;;;;;;4590720;19;19911;-24
2022/06/01 02:48:34;;;;;;;;;;;15.90;99.90;;;;;;4590742;19;19918;-25
2022/06/01 02:50:06;;;;;;;;;;;15.90;99.90;;;;;;4590661;19;19947;-23
2022/06/01 02:51:37;;;;;;;;;;;15.90;99.90;;;;;;4590225;19;19917;-23
2022/06/01 02:53:08;;;;;;;;;;;15.90;99.90;;;;;;4591395;19;20357;-23
2022/06/01 02:54:40;;;;;;;;;;;16.00;99.90;;;;;;4590311;19;19919;-24
2022/06/01 02:56:12;;;;;;;;;;;16.00;99.90;;;;;;4590588;19;19950;-24
2022/06/01 02:57:43;;;;;;;;;;;16.00;99.90;;;;;;4590499;19;20349;-24
2022/06/01 02:59:15;;;;;;;;;;;16.00;99.90;;;;;;4588574;19;19991;-24
2022/06/01 03:00:46;;;;;;;;;;;16.00;99.90;;;;;;4589779;19;19923;-26
2022/06/01 03:02:18;;;;;;;;;;;16.00;99.90;;;;;;4590641;19;19975;-24
2022/06/01 03:03:49;;;;;;;;;;;16.00;99.90;;;;;;4590802;19;20379;-29
2022/06/01 03:05:21;;;;;;;;;;;16.00;99.90;;;;;;4589088;19;19915;-26
2022/06/01 03:06:52;;;;;;;;;;;16.00;99.90;;;;;;4590106;19;20231;-26
2022/06/01 03:08:23;;;;;;;;;;;16.00;99.90;;;;;;4590318;19;20344;-31
2022/06/01 03:09:54;;;;;;;;;;;16.00;99.90;;;;;;4590739;19;19918;-25
2022/06/01 03:11:25;;;;;;;;;;;16.00;99.90;;;;;;4590012;19;19918;-24
2022/06/01 03:12:56;;;;;;;;;;;16.00;99.90;;;;;;4590031;19;20322;-23
2022/06/01 03:14:27;;;;;;;;;;;16.00;99.90;;;;;;4589405;19;20429;-26
2022/06/01 03:15:58;;;;;;;;;;;15.90;99.90;;;;;;4590325;19;19918;-24
2022/06/01 03:17:29;;;;;;;;;;;15.90;99.90;;;;;;4591946;19;20241;-23
2022/06/01 03:19:00;;;;;;;;;;;16.00;99.90;;;;;;4594432;19;19919;-23
2022/06/01 03:20:33;;;;;;;;;;;15.90;99.90;;;;;;4594718;19;20337;-28
2022/06/01 03:22:04;;;;;;;;;;;15.90;99.90;;;;;;4595133;19;19915;-25
2022/06/01 03:23:35;;;;;;;;;;;16.00;99.90;;;;;;4594547;19;19953;-24
2022/06/01 03:25:07;;;;;;;;;;;15.90;99.90;;;;;;4593102;19;19921;-29
2022/06/01 03:26:38;;;;;;;;;;;16.00;99.90;;;;;;4595092;19;20238;-26
2022/06/01 03:28:09;;;;;;;;;;;16.00;99.90;;;;;;4594737;19;19935;-24
2022/06/01 03:29:40;;;;;;;;;;;16.00;99.90;;;;;;4594281;19;19927;-25
2022/06/01 03:31:11;;;;;;;;;;;16.00;99.90;;;;;;4594475;19;19929;-23
2022/06/01 03:32:43;;;;;;;;;;;16.00;99.90;;;;;;4595007;19;19919;-24
2022/06/01 03:34:14;;;;;;;;;;;16.00;99.90;;;;;;4594300;19;19962;-25
2022/06/01 03:35:45;;;;;;;;;;;16.00;99.90;;;;;;4594351;19;20274;-24
2022/06/01 03:37:16;;;;;;;;;;;16.00;99.90;;;;;;4594307;19;19919;-26
2022/06/01 03:38:47;;;;;;;;;;;16.00;99.90;;;;;;4594437;19;20304;-24
2022/06/01 03:40:19;;;;;;;;;;;16.00;99.90;;;;;;4594041;19;19915;-23
2022/06/01 03:41:50;;;;;;;;;;;16.00;99.90;;;;;;4594197;19;19926;-24
2022/06/01 03:43:20;;;;;;;;;;;16.00;99.90;;;;;;4594433;19;20294;-23
2022/06/01 03:46:41;;;;;;;;;;;16.00;99.90;;;;;;4593805;19;19915;-23
2022/06/01 03:48:12;;;;;;;;;;;16.00;99.90;;;;;;4594506;19;19921;-23
2022/06/01 03:49:43;;;;;;;;;;;16.00;99.90;;;;;;4594108;19;19925;-24
2022/06/01 03:51:14;;;;;;;;;;;16.00;99.90;;;;;;4594143;19;19915;-24
2022/06/01 03:52:45;;;;;;;;;;;16.00;99.90;;;;;;4592865;19;20336;-24
2022/06/01 03:54:16;;;;;;;;;;;16.00;99.90;;;;;;4593662;19;19923;-29
2022/06/01 03:55:47;;;;;;;;;;;16.00;99.90;;;;;;4594071;19;19918;-24
2022/06/01 03:57:18;;;;;;;;;;;16.00;99.90;;;;;;4593671;19;19929;-23
2022/06/01 03:58:49;;;;;;;;;;;16.00;99.90;;;;;;4593237;19;19925;-24
2022/06/01 04:00:22;;;;;;;;;;;16.00;99.90;;;;;;4593839;19;20234;-24
2022/06/01 04:02:08;;;;;;;;;;;16.00;99.90;;;;;;4593699;19;19993;-24
2022/06/01 04:03:39;;;;;;;;;;;16.00;99.90;;;;;;4593066;19;19986;-23
2022/06/01 04:05:10;;;;;;;;;;;16.00;99.90;;;;;;4592019;19;19918;-25
2022/06/01 04:06:41;;;;;;;;;;;16.00;99.90;;;;;;4593789;19;19999;-23
2022/06/01 04:08:11;;;;;;;;;;;16.00;99.90;;;;;;4593869;19;19915;-24
2022/06/01 04:09:43;;;;;;;;;;;16.00;99.90;;;;;;4592473;19;20034;-24
2022/06/01 04:11:13;;;;;;;;;;;16.00;99.90;;;;;;4593040;19;19918;-23
2022/06/01 04:12:45;;;;;;;;;;;16.00;99.90;;;;;;4593986;19;19963;-24
2022/06/01 04:14:16;;;;;;;;;;;16.00;99.90;;;;;;4592853;19;19942;-25
2022/06/01 04:15:47;;;;;;;;;;;16.00;99.90;;;;;;4592371;19;19996;-25
2022/06/01 04:17:18;;;;;;;;;;;16.00;99.90;;;;;;4592380;19;19978;-24
2022/06/01 04:18:49;;;;;;;;;;;16.00;99.90;;;;;;4592314;19;19934;-24
2022/06/01 04:20:20;;;;;;;;;;;16.00;99.90;;;;;;4593113;19;20270;-24
2022/06/01 04:21:52;;;;;;;;;;;16.00;99.90;;;;;;4593308;19;20337;-29
2022/06/01 04:23:22;;;;;;;;;;;16.00;99.90;;;;;;4593424;19;19982;-24
2022/06/01 04:24:53;;;;;;;;;;;16.00;99.90;;;;;;4592690;19;20364;-24
2022/06/01 04:26:25;;;;;;;;;;;16.00;99.90;;;;;;4592439;19;19971;-24
2022/06/01 04:27:57;;;;;;;;;;;16.00;99.90;;;;;;4592923;19;20004;-23
2022/06/01 04:29:27;;;;;;;;;;;16.00;99.90;;;;;;4595157;19;19919;-27
2022/06/01 04:30:59;;;;;;;;;;;16.00;99.90;;;;;;4594360;19;19945;-24
2022/06/01 04:32:32;;;;;;;;;;;16.00;99.90;;;;;;4594826;19;19919;-25
2022/06/01 04:34:04;;;;;;;;;;;16.00;99.90;;;;;;4590497;19;19925;-26
2022/06/01 04:35:35;;;;;;;;;;;15.90;99.90;;;;;;4589992;19;19946;-27
2022/06/01 04:37:21;;;;;;;;;;;16.00;99.90;;;;;;4592590;19;19997;-30
2022/06/01 04:39:01;;;;;;;;;;;15.90;99.90;;;;;;4591846;19;20095;-25
2022/06/01 04:40:32;;;;;;;;;;;16.00;99.90;;;;;;4593013;19;20245;-25
2022/06/01 04:42:18;;;;;;;;;;;16.00;99.90;;;;;;4594957;19;19923;-25
2022/06/01 04:44:03;;;;;;;;;;;16.00;99.90;;;;;;4594187;19;19915;-26
2022/06/01 04:45:50;;;;;;;;;;;16.00;99.90;;;;;;4595120;19;19922;-26
2022/06/01 04:47:36;;;;;;;;;;;16.00;99.90;;;;;;4592926;19;19914;-26
2022/06/01 04:49:22;;;;;;;;;;;16.00;99.90;;;;;;4595337;19;19917;-26
2022/06/01 04:51:07;;;;;;;;;;;16.00;99.90;;;;;;4593038;19;19919;-28
2022/06/01 04:52:53;;;;;;;;;;;16.00;99.90;;;;;;4594020;19;19919;-29
2022/06/01 04:54:39;;;;;;;;;;;16.00;99.90;;;;;;4594741;19;19926;-26
2022/06/01 04:56:25;;;;;;;;;;;16.00;99.90;;;;;;4593672;19;20424;-24
2022/06/01 04:58:11;;;;;;;;;;;16.00;99.90;;;;;;4593332;19;19933;-26
2022/06/01 04:59:56;;;;;;;;;;;16.10;99.90;;;;;;4593618;19;19970;-24
2022/06/01 05:01:27;;;;;;;;;;;16.00;99.90;;;;;;4594180;19;19919;-24
2022/06/01 05:02:59;;;;;;;;;;;16.00;99.90;;;;;;4591507;19;19919;-25
2022/06/01 05:04:30;;;;;;;;;;;16.00;99.90;;;;;;4593616;19;19926;-23
2022/06/01 05:06:00;;;;;;;;;;;16.10;99.90;;;;;;4594222;19;19926;-23
2022/06/01 05:07:31;;;;;;;;;;;16.10;99.90;;;;;;4592916;19;20340;-23
2022/06/01 05:09:02;;;;;;;;;;;16.00;99.90;;;;;;4594143;19;19929;-23
2022/06/01 05:10:34;;;;;;;;;;;16.00;99.90;;;;;;4595368;19;19918;-26
2022/06/01 05:12:05;;;;;;;;;;;16.00;99.90;;;;;;4591065;19;19956;-25
2022/06/01 05:13:36;;;;;;;;;;;16.00;99.90;;;;;;4593044;19;19970;-25
2022/06/01 05:15:07;;;;;;;;;;;16.00;99.90;;;;;;4593122;19;19942;-24
2022/06/01 05:16:38;;;;;;;;;;;16.10;99.90;;;;;;4592139;19;19922;-25
2022/06/01 05:18:10;;;;;;;;;;;16.10;99.90;;;;;;4593577;19;19971;-24
2022/06/01 05:19:41;;;;;;;;;;;16.00;99.90;;;;;;4592313;19;20332;-24
2022/06/01 05:21:12;;;;;;;;;;;16.10;99.90;;;;;;4594737;19;19914;-24
2022/06/01 05:22:45;;;;;;;;;;;16.10;99.90;;;;;;4593231;19;20234;-24
2022/06/01 05:24:16;;;;;;;;;;;16.10;99.90;;;;;;4590453;19;19925;-24
2022/06/01 05:25:48;;;;;;;;;;;16.10;99.90;;;;;;4592641;19;20325;-24
2022/06/01 05:27:19;;;;;;;;;;;16.20;99.90;;;;;;4593062;19;19914;-25
2022/06/01 05:28:50;;;;;;;;;;;16.10;99.90;;;;;;4590250;19;19968;-25
2022/06/01 05:30:21;;;;;;;;;;;16.10;99.90;;;;;;4592446;19;19915;-23
2022/06/01 05:31:52;;;;;;;;;;;16.10;99.90;;;;;;4590287;19;19915;-24
2022/06/01 05:33:23;;;;;;;;;;;16.20;99.90;;;;;;4592497;19;20261;-23
2022/06/01 05:34:54;;;;;;;;;;;16.20;99.90;;;;;;4591806;19;19923;-22
2022/06/01 05:36:26;;;;;;;;;;;16.20;99.90;;;;;;4592353;19;19919;-24
2022/06/01 05:37:57;;;;;;;;;;;16.30;99.90;;;;;;4590274;19;20265;-25
2022/06/01 05:39:28;;;;;;;;;;;16.30;99.90;;;;;;4591233;19;19982;-27
2022/06/01 05:40:59;;;;;;;;;;;16.40;99.90;;;;;;4591108;19;19930;-23
2022/06/01 05:42:30;;;;;;;;;;;16.40;99.90;;;;;;4591760;19;19922;-25
2022/06/01 05:44:01;;;;;;;;;;;16.40;99.90;;;;;;4593099;19;19978;-23
2022/06/01 05:45:32;;;;;;;;;;;16.50;99.90;;;;;;4592359;19;19922;-24
2022/06/01 05:47:03;;;;;;;;;;;16.50;99.90;;;;;;4592350;19;19914;-23
2022/06/01 05:48:35;;;;;;;;;;;16.60;99.90;;;;;;4592676;19;19915;-22
2022/06/01 05:50:06;;;;;;;;;;;16.70;99.90;;;;;;4592386;19;20057;-23
2022/06/01 05:51:37;;;;;;;;;;;16.90;99.90;;;;;;4592664;19;20276;-26
2022/06/01 05:53:08;;;;;;;;;;;17.10;99.90;;;;;;4591046;19;19919;-25
2022/06/01 05:54:39;;;;;;;;;;;17.10;99.90;;;;;;4590685;19;20276;-26
2022/06/01 05:56:10;;;;;;;;;;;16.90;99.90;;;;;;4591644;19;19922;-24
2022/06/01 05:57:41;;;;;;;;;;;16.80;99.90;;;;;;4591585;19;19938;-26
2022/06/01 05:59:11;;;;;;;;;;;16.60;99.90;;;;;;4589645;19;19919;-31
2022/06/01 06:00:42;;;;;;;;;;;16.50;99.90;;;;;;4591169;19;19915;-26
2022/06/01 06:02:13;;;;;;;;;;;16.50;99.90;;;;;;4589460;19;19919;-25
2022/06/01 06:03:44;;;;;;;;;;;16.50;99.90;;;;;;4591013;19;19926;-24
2022/06/01 06:07:04;;;;;;;;;;;16.50;99.90;;;;;;4591754;19;19922;-23
2022/06/01 06:08:36;;;;;;;;;;;16.40;99.90;;;;;;4591439;19;19931;-24
2022/06/01 06:10:07;;;;;;;;;;;16.40;99.90;;;;;;4591104;19;20280;-24
2022/06/01 06:11:38;;;;;;;;;;;16.40;99.90;;;;;;4590934;19;19958;-26
2022/06/01 06:13:09;;;;;;;;;;;16.40;99.90;;;;;;4590490;19;19922;-27
2022/06/01 06:14:40;;;;;;;;;;;16.40;99.90;;;;;;4590368;19;19923;-24
2022/06/01 06:16:12;;;;;;;;;;;16.40;99.90;;;;;;4591046;19;20138;-24
2022/06/01 06:17:42;;;;;;;;;;;16.40;99.90;;;;;;4590633;19;19922;-25
2022/06/01 06:19:14;;;;;;;;;;;16.40;99.90;;;;;;4591272;19;19929;-25
2022/06/01 06:20:45;;;;;;;;;;;16.40;99.90;;;;;;4591134;19;19983;-27
2022/06/01 06:22:16;;;;;;;;;;;16.40;99.90;;;;;;4591019;19;19922;-26
2022/06/01 06:23:47;;;;;;;;;;;16.40;99.90;;;;;;4591560;19;19926;-23
2022/06/01 06:25:18;;;;;;;;;;;16.40;99.90;;;;;;4590146;19;19983;-24
2022/06/01 06:26:49;;;;;;;;;;;16.40;99.90;;;;;;4590842;19;19911;-23
2022/06/01 06:28:20;;;;;;;;;;;16.40;99.90;;;;;;4591356;19;20277;-25
2022/06/01 06:29:51;;;;;;;;;;;16.40;99.90;;;;;;4591476;19;19914;-24
2022/06/01 06:31:22;;;;;;;;;;;16.40;99.90;;;;;;4590859;19;19922;-27
2022/06/01 06:32:53;;;;;;;;;;;16.50;99.90;;;;;;4592974;19;19978;-26
2022/06/01 06:34:24;;;;;;;;;;;16.50;99.90;;;;;;4590872;19;19922;-24
2022/06/01 06:35:56;;;;;;;;;;;16.60;99.90;;;;;;4592378;19;19923;-23
2022/06/01 06:37:27;;;;;;;;;;;16.60;99.90;;;;;;4593279;19;19974;-24
2022/06/01 06:38:58;;;;;;;;;;;16.60;99.90;;;;;;4591727;19;20316;-24
2022/06/01 06:40:29;;;;;;;;;;;16.50;99.90;;;;;;4591809;19;19926;-24
2022/06/01 06:42:00;;;;;;;;;;;16.50;99.90;;;;;;4592340;19;19923;-25
2022/06/01 06:43:31;;;;;;;;;;;16.50;99.90;;;;;;4591053;19;19922;-26
2022/06/01 06:45:03;;;;;;;;;;;16.40;99.90;;;;;;4590679;19;19922;-24
2022/06/01 06:46:34;;;;;;;;;;;16.40;99.90;;;;;;4592336;19;19930;-25
2022/06/01 06:48:07;;;;;;;;;;;16.40;99.90;;;;;;4592967;19;19929;-27
2022/06/01 06:49:39;;;;;;;;;;;16.40;99.90;;;;;;4592604;19;19915;-23
2022/06/01 06:51:10;;;;;;;;;;;16.40;99.90;;;;;;4593519;19;20497;-24
2022/06/01 06:52:41;;;;;;;;;;;16.40;99.90;;;;;;4596414;19;19915;-24
2022/06/01 06:54:12;;;;;;;;;;;16.40;99.90;;;;;;4592583;19;19931;-23
2022/06/01 06:55:43;;;;;;;;;;;16.40;99.90;;;;;;4594489;19;20283;-24
2022/06/01 06:57:14;;;;;;;;;;;16.40;99.90;;;;;;4593207;19;19986;-26
2022/06/01 06:58:45;;;;;;;;;;;16.40;99.90;;;;;;4591778;19;20654;-24
2022/06/01 07:00:16;;;;;;;;;;;16.40;99.90;;;;;;4595529;19;19983;-24
2022/06/01 07:01:47;;;;;;;;;;;16.40;99.90;;;;;;4592700;19;19926;-24
2022/06/01 07:03:18;;;;;;;;;;;16.40;99.90;;;;;;4595221;19;19929;-25
2022/06/01 07:04:49;;;;;;;;;;;16.40;99.90;;;;;;4590051;19;20249;-29
2022/06/01 07:06:20;;;;;;;;;;;16.40;99.90;;;;;;4593372;19;20262;-27
2022/06/01 07:07:51;;;;;;;;;;;16.40;99.90;;;;;;4595888;19;19918;-28
2022/06/01 07:09:22;;;;;;;;;;;16.30;99.90;;;;;;4596838;19;19929;-23
2022/06/01 07:10:54;;;;;;;;;;;16.30;99.90;;;;;;4596048;19;19914;-23
2022/06/01 07:12:24;;;;;;;;;;;16.30;99.90;;;;;;4595969;19;19918;-24
2022/06/01 07:13:55;;;;;;;;;;;16.40;99.90;;;;;;4595163;19;19915;-25
2022/06/01 07:15:27;;;;;;;;;;;16.40;99.90;;;;;;4596935;19;19919;-24
2022/06/01 07:17:00;;;;;;;;;;;16.50;99.90;;;;;;4590497;19;20526;-29
2022/06/01 07:18:32;;;;;;;;;;;16.50;99.90;;;;;;4593404;19;20372;-24
2022/06/01 07:20:03;;;;;;;;;;;16.50;99.90;;;;;;4594685;19;19956;-25
2022/06/01 07:21:36;;;;;;;;;;;16.60;99.90;;;;;;4591454;19;19972;-23
2022/06/01 07:23:07;;;;;;;;;;;16.60;99.90;;;;;;4593201;19;19934;-24
2022/06/01 07:24:38;;;;;;;;;;;16.60;99.90;;;;;;4592571;19;19922;-24
2022/06/01 07:26:15;;;;;;;;;;;16.60;99.90;;;;;;4593239;19;20348;-28
2022/06/01 07:27:48;;;;;;;;;;;16.70;99.90;;;;;;4595429;19;19926;-23
2022/06/01 07:29:19;;;;;;;;;;;16.70;99.90;;;;;;4595923;19;19944;-23
2022/06/01 07:30:50;;;;;;;;;;;16.70;99.90;;;;;;4594083;19;19923;-26
2022/06/01 07:32:21;;;;;;;;;;;16.80;99.90;;;;;;4592300;19;20195;-23
2022/06/01 07:33:53;;;;;;;;;;;16.80;99.90;;;;;;4595142;19;19915;-25
2022/06/01 07:35:24;;;;;;;;;;;16.80;99.90;;;;;;4595383;19;19995;-30
2022/06/01 07:43:05;;;;;;;;;;;16.80;99.90;;;;;;4591943;19;19923;-22
2022/06/01 07:44:15;;;;;;;;;;;16.80;99.90;;;;;;4593495;19;19929;-25
2022/06/01 07:45:46;;;;;;;;;;;16.80;99.90;;;;;;4596469;19;19915;-24
2022/06/01 07:47:17;;;;;;;;;;;16.80;99.90;;;;;;4594317;19;19974;-25
2022/06/01 07:48:49;;;;;;;;;;;16.80;99.90;;;;;;4594463;19;19938;-26
2022/06/01 07:50:20;;;;;;;;;;;16.80;99.90;;;;;;4594769;19;19926;-24
2022/06/01 07:51:53;;;;;;;;;;;16.80;99.90;;;;;;4593582;19;20361;-24
2022/06/01 07:53:24;;;;;;;;;;;16.80;99.90;;;;;;4594296;19;19933;-25
2022/06/01 07:54:55;;;;;;;;;;;16.80;99.90;;;;;;4595634;19;19926;-24
2022/06/01 07:56:27;;;;;;;;;;;16.80;99.90;;;;;;4594820;19;19915;-25
2022/06/01 07:57:58;;;;;;;;;;;16.90;99.90;;;;;;4594229;19;19993;-27
2022/06/01 07:59:29;;;;;;;;;;;16.80;99.90;;;;;;4595380;19;20245;-25
2022/06/01 08:01:00;;;;;;;;;;;16.80;99.90;;;;;;4592533;19;20229;-28
2022/06/01 08:02:31;;;;;;;;;;;16.80;99.90;;;;;;4595000;19;19922;-24
2022/06/01 08:04:03;;;;;;;;;;;16.80;99.90;;;;;;4592353;19;19935;-27
2022/06/01 08:05:33;;;;;;;;;;;16.80;99.90;;;;;;4592381;19;20288;-26
2022/06/01 08:07:05;;;;;;;;;;;16.80;99.90;;;;;;4595609;19;19939;-23
2022/06/01 08:08:36;;;;;;;;;;;16.80;99.90;;;;;;4593761;19;20367;-23
2022/06/01 08:10:08;;;;;;;;;;;16.80;99.90;;;;;;4593906;19;19910;-24
2022/06/01 08:13:29;;;;;;;;;;;16.90;99.90;;;;;;4594373;19;19915;-28
2022/06/01 08:15:00;;;;;;;;;;;16.90;99.90;;;;;;4595358;19;20363;-25
2022/06/01 08:16:31;;;;;;;;;;;16.90;99.90;;;;;;4592960;19;20008;-25
2022/06/01 08:18:02;;;;;;;;;;;17.00;99.90;;;;;;4594021;19;19911;-25
2022/06/01 08:19:33;;;;;;;;;;;17.00;99.90;;;;;;4590766;19;19915;-25
2022/06/01 08:21:03;;;;;;;;;;;17.00;99.90;;;;;;4591206;19;20360;-26
2022/06/01 08:22:35;;;;;;;;;;;17.00;99.90;;;;;;4591136;19;19907;-25
2022/06/01 08:24:05;;;;;;;;;;;17.00;99.90;;;;;;4593170;19;20003;-27
2022/06/01 08:25:36;;;;;;;;;;;17.00;99.90;;;;;;4591321;19;19919;-28
2022/06/01 08:27:08;;;;;;;;;;;17.00;99.90;;;;;;4591796;19;19923;-26
2022/06/01 08:28:39;;;;;;;;;;;17.00;99.90;;;;;;4593122;19;19914;-27
2022/06/01 08:30:11;;;;;;;;;;;16.90;99.90;;;;;;4590758;19;19922;-28
2022/06/01 08:31:41;;;;;;;;;;;16.90;99.90;;;;;;4592963;19;19918;-25
2022/06/01 08:33:12;;;;;;;;;;;16.90;99.90;;;;;;4590843;19;19935;-25
2022/06/01 08:34:43;;;;;;;;;;;16.90;99.90;;;;;;4590998;19;19918;-25
2022/06/01 08:36:14;;;;;;;;;;;16.90;99.90;;;;;;4590582;19;19922;-25
2022/06/01 08:37:46;;;;;;;;;;;16.80;99.90;;;;;;4591467;19;19911;-27
2022/06/01 08:39:17;;;;;;;;;;;16.80;99.90;;;;;;4593082;19;19918;-25
2022/06/01 08:40:49;;;;;;;;;;;16.70;99.90;;;;;;4595555;19;20243;-25
2022/06/01 08:42:20;;;;;;;;;;;16.70;99.90;;;;;;4592867;19;19911;-24
2022/06/01 08:43:53;;;;;;;;;;;16.70;99.90;;;;;;4591448;19;19918;-26
2022/06/01 08:45:24;;;;;;;;;;;16.80;99.90;;;;;;4591058;19;19915;-26
2022/06/01 08:47:18;;;;;;;;;;;16.80;99.90;;;;;;4591656;19;19946;-25
2022/06/01 08:48:49;;;;;;;;;;;16.80;99.90;;;;;;4590374;19;19915;-23
2022/06/01 08:50:25;;;;;;;;;;;16.90;99.90;;;;;;4590445;19;19919;-24
2022/06/01 08:51:56;;;;;;;;;;;16.90;99.90;;;;;;4590132;19;20378;-25
2022/06/01 08:53:27;;;;;;;;;;;16.80;99.90;;;;;;4590785;19;19919;-25
2022/06/01 08:54:58;;;;;;;;;;;16.80;99.90;;;;;;4592873;19;19915;-24
2022/06/01 08:56:41;;;;;;;;;;;16.70;99.90;;;;;;4590501;19;19917;-27
2022/06/01 08:58:18;;;;;;;;;;;16.70;99.90;;;;;;4592173;19;19926;-24
2022/06/01 08:59:54;;;;;;;;;;;16.70;99.90;;;;;;4589641;19;20295;-23
2022/06/01 09:01:28;;;;;;;;;;;16.70;99.90;;;;;;4589847;19;19939;-23
2022/06/01 09:03:07;;;;;;;;;;;16.70;99.90;;;;;;4590226;19;19929;-27
2022/06/01 09:04:48;;;;;;;;;;;16.70;99.90;;;;;;4589408;19;20325;-23
2022/06/01 09:06:22;;;;;;;;;;;16.80;99.90;;;;;;4590324;19;19939;-23
2022/06/01 09:07:52;;;;;;;;;;;16.70;99.90;;;;;;4590013;19;20363;-24
2022/06/01 09:09:25;;;;;;;;;;;16.70;99.90;;;;;;4589652;19;19911;-28
2022/06/01 09:11:12;;;;;;;;;;;16.70;99.90;;;;;;4590166;19;19970;-24
2022/06/01 09:12:43;;;;;;;;;;;16.80;99.90;;;;;;4588793;19;20259;-25
2022/06/01 09:14:13;;;;;;;;;;;16.90;99.90;;;;;;4588955;19;19934;-25
2022/06/01 09:15:49;;;;;;;;;;;16.90;99.90;;;;;;4589678;19;20238;-24
2022/06/01 09:17:21;;;;;;;;;;;16.90;99.90;;;;;;4588742;19;19923;-26